Time;durP1;ratioP1;P1;durP2;ratioP2;P2;SDS_P1;SDS_P2;PMS_P1;PMS_P2;Temp;Humidity;BMP_temperature;BMP_pressure;BME280_temperature;BME280_humidity;BME280_pressure;Samples;Min_cycle;Max_cycle;Signal;HPM_P1;HPM_P2
2022/05/08 00:01:13;;;;;;;9.38;4.05;;;;;;;15.52;87.56;102138.47;5073998;28;20063;-72
2022/05/08 00:03:39;;;;;;;13.68;4.75;;;;;;;15.52;87.68;102130.88;5083573;28;20094;-72
2022/05/08 00:06:10;;;;;;;13.10;4.90;;;;;;;15.52;88.33;102128.09;5076460;28;20471;-73
2022/05/08 00:08:38;;;;;;;13.63;5.03;;;;;;;15.53;88.04;102138.06;5072384;28;20052;-73
2022/05/08 00:11:06;;;;;;;13.75;4.70;;;;;;;15.50;88.11;102142.44;5073042;28;20493;-72
2022/05/08 00:13:35;;;;;;;13.77;4.65;;;;;;;15.48;87.81;102138.47;5080911;28;20055;-74
2022/05/08 00:16:03;;;;;;;12.48;4.75;;;;;;;15.42;88.07;102148.41;5075140;28;20769;-72
2022/05/08 00:18:30;;;;;;;16.08;5.35;;;;;;;15.43;88.11;102145.22;5080537;28;20295;-73
2022/05/08 00:20:56;;;;;;;13.52;4.75;;;;;;;15.34;88.13;102143.97;5076956;28;20713;-74
2022/05/08 00:23:23;;;;;;;10.73;4.47;;;;;;;15.28;87.92;102139.97;5080832;28;20055;-72
2022/05/08 00:25:50;;;;;;;11.70;4.60;;;;;;;15.26;88.68;102148.75;5073893;28;20056;-73
2022/05/08 00:28:16;;;;;;;11.48;4.60;;;;;;;15.22;88.78;102136.78;5080192;28;20045;-73
2022/05/08 00:30:43;;;;;;;11.38;4.45;;;;;;;15.12;88.77;102131.19;5074471;28;20063;-73
2022/05/08 00:33:09;;;;;;;15.52;6.47;;;;;;;15.13;88.20;102136.34;5075006;28;20144;-73
2022/05/08 00:35:36;;;;;;;15.45;5.25;;;;;;;15.11;89.63;102132.38;5076909;28;20610;-73
2022/05/08 00:38:02;;;;;;;15.45;5.80;;;;;;;15.11;89.33;102141.53;5077661;28;20087;-74
2022/05/08 00:40:35;;;;;;;17.02;5.68;;;;;;;15.13;89.56;102147.50;5078345;28;20119;-75
2022/05/08 00:43:34;;;;;;;8.20;3.58;;;;;;;15.02;89.77;102143.13;5082401;28;20127;-73
2022/05/08 00:46:10;;;;;;;14.05;5.38;;;;;;;14.94;89.45;102139.50;5071698;28;20048;-73
2022/05/08 00:48:37;;;;;;;13.52;6.00;;;;;;;14.93;90.35;102143.47;5078936;28;20048;-73
2022/05/08 00:51:06;;;;;;;17.95;6.10;;;;;;;14.85;91.18;102141.84;5080582;28;20097;-73
2022/05/08 00:53:35;;;;;;;16.60;6.43;;;;;;;14.84;90.96;102139.44;5076150;28;20132;-72
2022/05/08 00:56:05;;;;;;;17.73;5.90;;;;;;;14.81;90.96;102146.59;5078837;28;20131;-73
2022/05/08 00:58:33;;;;;;;15.38;5.85;;;;;;;14.76;91.28;102144.22;5078921;28;20037;-72
2022/05/08 01:00:59;;;;;;;15.95;6.00;;;;;;;14.75;91.62;102141.81;5072523;28;20055;-75
2022/05/08 01:03:26;;;;;;;14.70;6.88;;;;;;;14.75;91.74;102153.75;5083192;28;20064;-74
2022/05/08 01:05:54;;;;;;;15.73;6.65;;;;;;;14.72;92.16;102148.94;5079124;28;20042;-73
2022/05/08 01:08:22;;;;;;;18.98;7.38;;;;;;;14.71;92.63;102150.16;5079841;28;20141;-73
2022/05/08 01:10:49;;;;;;;16.50;5.93;;;;;;;14.66;92.26;102152.50;5073573;28;20053;-73
2022/05/08 01:13:16;;;;;;;14.18;6.32;;;;;;;14.62;92.97;102148.91;5081223;28;20623;-73
2022/05/08 01:15:44;;;;;;;19.42;6.93;;;;;;;14.63;93.22;102162.47;5078032;28;20496;-74
2022/05/08 01:18:14;;;;;;;14.20;5.30;;;;;;;14.58;93.56;102162.03;5078500;28;20058;-73
2022/05/08 01:20:43;;;;;;;18.88;6.78;;;;;;;14.57;93.41;102163.19;5070236;28;20067;-73
2022/05/08 01:23:10;;;;;;;19.55;7.38;;;;;;;14.55;93.60;102163.59;5085509;28;20048;-73
2022/05/08 01:25:54;;;;;;;21.38;7.97;;;;;;;14.54;93.78;102166.75;5074548;28;20412;-74
2022/05/08 01:28:21;;;;;;;18.45;7.88;;;;;;;14.54;94.05;102164.78;5083883;28;20140;-73
2022/05/08 01:30:51;;;;;;;15.13;6.82;;;;;;;14.55;94.72;102163.59;5072514;28;20394;-74
2022/05/08 01:33:18;;;;;;;18.98;7.45;;;;;;;14.52;94.77;102175.50;5070386;28;20055;-72
2022/05/08 01:35:45;;;;;;;20.17;6.93;;;;;;;14.44;95.48;102173.88;5076988;28;20144;-73
2022/05/08 01:38:13;;;;;;;17.42;7.53;;;;;;;14.44;95.43;102173.88;5088149;28;20522;-72
2022/05/08 01:40:40;;;;;;;19.75;7.45;;;;;;;14.43;95.92;102172.28;5074974;28;20052;-73
2022/05/08 01:43:07;;;;;;;8.95;3.97;;;;;;;14.38;97.34;102172.63;5085175;28;20595;-72
2022/05/08 01:45:34;;;;;;;18.08;8.25;;;;;;;14.36;97.85;102177.00;5078966;28;20058;-72
2022/05/08 01:50:45;;;;;;;25.80;9.57;;;;;;;14.20;98.76;102173.66;5088052;28;20134;-72
2022/05/08 01:53:12;;;;;;;26.60;10.48;;;;;;;14.10;99.78;102180.75;5083033;28;20696;-73
2022/05/08 01:55:39;;;;;;;14.75;6.80;;;;;;;14.02;100.00;102173.56;5080775;28;20042;-73
2022/05/08 01:58:05;;;;;;;28.83;9.10;;;;;;;13.99;100.00;102179.09;5077225;28;20127;-74
2022/05/08 02:00:32;;;;;;;26.85;14.32;;;;;;;13.95;100.00;102178.25;5083524;28;20052;-72
2022/05/08 02:03:02;;;;;;;23.50;13.63;;;;;;;13.87;100.00;102165.47;5075881;28;20075;-72
2022/05/08 02:05:31;;;;;;;23.33;11.63;;;;;;;13.77;100.00;102174.53;5088672;28;20083;-72
2022/05/08 02:08:01;;;;;;;28.42;12.68;;;;;;;13.76;100.00;102170.13;5081811;28;20040;-72
2022/05/08 02:10:28;;;;;;;30.20;12.95;;;;;;;13.68;100.00;102169.28;5084000;28;20055;-72
2022/05/08 02:12:54;;;;;;;27.30;12.60;;;;;;;13.62;100.00;102162.47;5085123;28;20516;-73
2022/05/08 02:15:21;;;;;;;26.33;12.32;;;;;;;13.59;100.00;102174.34;5079867;28;20569;-73
2022/05/08 02:17:47;;;;;;;24.17;11.63;;;;;;;13.54;100.00;102174.72;5083401;28;20040;-73
2022/05/08 02:20:14;;;;;;;19.50;7.18;;;;;;;13.51;100.00;102175.47;5083331;28;20048;-73
2022/05/08 02:22:40;;;;;;;27.05;12.55;;;;;;;13.52;100.00;102184.59;5081932;28;20258;-72
2022/05/08 02:25:07;;;;;;;23.30;10.00;;;;;;;13.47;100.00;102191.34;5074865;28;20158;-71
2022/05/08 02:27:38;;;;;;;25.92;11.88;;;;;;;13.42;100.00;102186.09;5083395;28;20036;-73
2022/05/08 02:30:10;;;;;;;26.35;12.38;;;;;;;13.35;100.00;102188.81;5074886;28;20063;-73
2022/05/08 02:32:37;;;;;;;21.00;10.27;;;;;;;13.32;100.00;102191.53;5083110;28;20059;-73
2022/05/08 02:35:06;;;;;;;23.60;10.15;;;;;;;13.27;100.00;102195.47;5075453;28;20072;-71
2022/05/08 02:37:33;;;;;;;23.15;10.95;;;;;;;13.28;100.00;102204.59;5080148;28;20048;-72
2022/05/08 02:40:00;;;;;;;19.75;9.02;;;;;;;13.28;100.00;102202.63;5079834;28;20497;-72
2022/05/08 02:42:28;;;;;;;23.75;10.13;;;;;;;13.23;100.00;102200.19;5085062;28;20412;-72
2022/05/08 02:44:54;;;;;;;25.00;10.77;;;;;;;13.24;100.00;102204.56;5073964;28;20052;-70
2022/05/08 02:47:21;;;;;;;25.33;9.90;;;;;;;13.22;100.00;102200.59;5085223;28;20436;-73
2022/05/08 02:49:47;;;;;;;23.65;11.02;;;;;;;13.22;100.00;102215.25;5085006;28;20085;-72
2022/05/08 02:52:13;;;;;;;24.38;11.73;;;;;;;13.20;100.00;102208.50;5080501;28;20044;-73
2022/05/08 02:54:40;;;;;;;22.50;9.38;;;;;;;13.22;100.00;102204.16;5069616;28;20135;-72
2022/05/08 02:59:52;;;;;;;22.17;9.05;;;;;;;13.16;100.00;102213.22;5081010;28;20080;-72
2022/05/08 03:02:18;;;;;;;20.77;8.98;;;;;;;13.10;100.00;102209.97;5080157;28;20131;-73
2022/05/08 03:04:45;;;;;;;23.17;9.52;;;;;;;13.03;100.00;102205.09;5082857;28;20783;-73
2022/05/08 03:07:13;;;;;;;24.55;9.52;;;;;;;12.99;100.00;102209.03;5070373;28;20048;-72
2022/05/08 03:09:39;;;;;;;25.70;9.23;;;;;;;12.97;100.00;102209.38;5070210;28;20148;-73
2022/05/08 03:12:06;;;;;;;24.95;9.93;;;;;;;13.02;100.00;102215.81;5088064;28;20044;-72
2022/05/08 03:14:33;;;;;;;24.40;7.88;;;;;;;13.02;100.00;102207.47;5077939;28;20406;-72
2022/05/08 03:17:00;;;;;;;17.05;7.07;;;;;;;12.96;100.00;102206.97;5076904;28;20667;-72
2022/05/08 03:19:26;;;;;;;21.50;9.85;;;;;;;12.88;100.00;102208.06;5077275;28;20139;-73
2022/05/08 03:21:53;;;;;;;23.30;8.23;;;;;;;12.85;100.00;102209.63;5079781;28;20077;-73
2022/05/08 03:24:19;;;;;;;26.02;9.55;;;;;;;12.78;100.00;102203.16;5082486;28;20060;-71
2022/05/08 03:26:46;;;;;;;21.50;8.80;;;;;;;12.74;100.00;102213.44;5074360;28;20048;-73
2022/05/08 03:29:12;;;;;;;18.23;7.53;;;;;;;12.73;100.00;102206.28;5075668;28;20050;-73
2022/05/08 03:31:39;;;;;;;23.60;9.82;;;;;;;12.70;100.00;102207.03;5078352;28;20072;-71
2022/05/08 03:34:06;;;;;;;24.20;9.32;;;;;;;12.64;100.00;102214.09;5075122;28;20454;-72
2022/05/08 03:36:32;;;;;;;26.50;9.88;;;;;;;12.61;100.00;102212.06;5078165;28;20579;-72
2022/05/08 03:38:58;;;;;;;23.38;9.00;;;;;;;12.59;100.00;102215.19;5079671;28;20062;-73
2022/05/08 03:41:25;;;;;;;29.25;10.65;;;;;;;12.56;100.00;102217.94;5076023;28;20090;-72
2022/05/08 03:43:51;;;;;;;27.13;9.20;;;;;;;12.56;100.00;102220.72;5068003;28;20487;-72
2022/05/08 03:46:18;;;;;;;28.17;10.68;;;;;;;12.50;100.00;102208.31;5080283;28;20052;-72
2022/05/08 03:48:45;;;;;;;23.88;9.32;;;;;;;12.57;100.00;102222.31;5084141;28;20104;-73
2022/05/08 03:51:11;;;;;;;25.98;9.65;;;;;;;12.57;100.00;102223.13;5082614;28;20082;-72
2022/05/08 03:53:38;;;;;;;26.23;10.30;;;;;;;12.57;100.00;102227.88;5076000;28;20416;-71
2022/05/08 03:56:04;;;;;;;22.80;10.00;;;;;;;12.59;100.00;102228.31;5083256;28;20069;-72
2022/05/08 03:58:31;;;;;;;29.38;10.70;;;;;;;12.58;100.00;102232.22;5068435;28;20052;-73
2022/05/08 04:00:58;;;;;;;27.08;9.55;;;;;;;12.57;100.00;102223.13;5082535;28;20500;-73
2022/05/08 04:03:24;;;;;;;27.02;9.55;;;;;;;12.60;100.00;102227.13;5068492;28;20052;-72
2022/05/08 04:05:51;;;;;;;26.27;10.73;;;;;;;12.60;100.00;102229.91;5070853;28;20056;-75
2022/05/08 04:08:17;;;;;;;26.02;9.70;;;;;;;12.59;100.00;102236.63;5070362;28;20127;-72
2022/05/08 04:10:44;;;;;;;32.70;9.85;;;;;;;12.59;100.00;102233.84;5078052;28;20055;-72
2022/05/08 04:13:10;;;;;;;27.02;10.73;;;;;;;12.56;100.00;102229.06;5082683;28;20051;-72
2022/05/08 04:18:22;;;;;;;26.73;10.70;;;;;;;12.57;100.00;102231.44;5083552;28;20117;-72
2022/05/08 04:20:49;;;;;;;25.58;9.32;;;;;;;12.56;100.00;102227.06;5076449;28;20083;-73
2022/05/08 04:26:00;;;;;;;27.67;10.40;;;;;;;12.50;100.00;102227.75;5067801;28;20053;-73
2022/05/08 04:28:27;;;;;;;30.00;10.30;;;;;;;12.47;100.00;102229.31;5080042;28;20052;-72
2022/05/08 04:30:53;;;;;;;28.27;11.18;;;;;;;12.42;100.00;102228.84;5078022;28;20048;-72
2022/05/08 04:33:21;;;;;;;28.08;12.73;;;;;;;12.35;100.00;102235.06;5071806;28;20056;-72
2022/05/08 04:35:48;;;;;;;24.80;11.75;;;;;;;12.27;100.00;102246.44;5074998;28;20063;-73
2022/05/08 04:38:15;;;;;;;28.70;10.57;;;;;;;12.26;100.00;102251.16;5080219;28;20044;-73
2022/05/08 04:40:41;;;;;;;17.75;7.57;;;;;;;12.17;100.00;102249.81;5072256;28;20056;-73
2022/05/08 04:43:08;;;;;;;35.50;11.25;;;;;;;12.13;100.00;102255.34;5081268;28;20512;-72
2022/05/08 04:45:35;;;;;;;25.20;10.40;;;;;;;12.06;100.00;102248.84;5067551;28;20048;-73
2022/05/08 04:48:01;;;;;;;24.63;10.85;;;;;;;12.03;100.00;102257.91;5068519;28;20095;-74
2022/05/08 04:50:28;;;;;;;25.85;10.60;;;;;;;11.95;100.00;102256.19;5076269;28;20052;-73
2022/05/08 04:52:55;;;;;;;29.92;11.25;;;;;;;11.89;100.00;102255.72;5073760;28;20048;-72
2022/05/08 04:55:21;;;;;;;32.90;11.98;;;;;;;11.90;100.00;102268.41;5080692;28;20044;-72
2022/05/08 04:57:48;;;;;;;34.05;11.13;;;;;;;11.90;100.00;102265.63;5072004;28;20504;-72
2022/05/08 05:00:15;;;;;;;26.85;10.30;;;;;;;11.92;100.00;102270.81;5067175;28;20147;-73
2022/05/08 05:02:44;;;;;;;30.75;11.68;;;;;;;11.91;100.00;102270.00;5068518;28;20142;-72
2022/05/08 05:05:11;;;;;;;26.50;9.18;;;;;;;11.90;100.00;102278.69;5077241;28;20063;-73
2022/05/08 05:07:39;;;;;;;29.65;9.05;;;;;;;11.87;100.00;102283.00;5076676;28;20048;-72
2022/05/08 05:10:08;;;;;;;27.45;8.85;;;;;;;11.80;100.00;102280.09;5086827;28;20040;-72
2022/05/08 05:12:35;;;;;;;25.83;8.82;;;;;;;11.81;100.00;102287.25;5078633;28;20143;-73
2022/05/08 05:15:03;;;;;;;26.65;8.02;;;;;;;11.81;100.00;102289.22;5080418;28;20054;-72
2022/05/08 05:17:30;;;;;;;31.05;8.25;;;;;;;11.86;100.00;102294.47;5083111;28;20063;-72
2022/05/08 05:19:56;;;;;;;28.27;8.00;;;;;;;11.81;100.00;102292.00;5074153;28;20097;-72
2022/05/08 05:22:23;;;;;;;27.10;8.00;;;;;;;11.83;100.00;102301.56;5085411;28;20153;-72
2022/05/08 05:24:50;;;;;;;23.00;6.80;;;;;;;11.87;100.00;102296.06;5082943;28;20044;-72
2022/05/08 05:27:17;;;;;;;24.42;7.65;;;;;;;11.92;99.43;102296.56;5074371;28;20501;-71
2022/05/08 05:29:43;;;;;;;25.33;6.55;;;;;;;11.94;98.77;102293.41;5080132;28;20048;-73
2022/05/08 05:32:10;;;;;;;22.27;6.30;;;;;;;11.93;98.21;102297.38;5083550;28;20560;-72
2022/05/08 05:34:37;;;;;;;19.70;6.43;;;;;;;11.95;98.58;102300.59;5079092;28;20640;-71
2022/05/08 05:37:03;;;;;;;33.42;7.15;;;;;;;11.98;97.79;102308.16;5083363;28;20063;-73
2022/05/08 05:39:30;;;;;;;22.13;5.80;;;;;;;11.98;97.17;102308.97;5078185;28;20500;-74
2022/05/08 05:41:57;;;;;;;28.23;7.28;;;;;;;12.01;97.46;102307.41;5077730;28;20127;-75
2022/05/08 05:44:23;;;;;;;31.70;6.75;;;;;;;12.01;96.80;102315.72;5080216;28;20071;-73
2022/05/08 05:49:38;;;;;;;18.60;4.97;;;;;;;12.03;95.53;102316.19;5077129;28;20495;-74
2022/05/08 05:52:08;;;;;;;22.42;5.40;;;;;;;12.09;95.30;102314.72;5085050;28;20055;-73
2022/05/08 05:54:35;;;;;;;24.40;6.13;;;;;;;12.17;95.47;102322.78;5085697;28;20127;-73
2022/05/08 05:57:02;;;;;;;19.08;4.15;;;;;;;12.23;95.42;102312.19;5082714;28;20048;-73
2022/05/08 05:59:29;;;;;;;23.25;6.13;;;;;;;12.29;94.83;102319.03;5077025;28;20075;-74
2022/05/08 06:02:06;;;;;;;23.30;6.15;;;;;;;12.37;94.75;102318.78;5074952;28;20508;-74
2022/05/08 06:04:33;;;;;;;21.85;5.38;;;;;;;12.41;93.50;102319.63;5075710;28;20163;-73
2022/05/08 06:06:59;;;;;;;17.08;4.90;;;;;;;12.49;92.82;102321.34;5082822;28;20044;-73
2022/05/08 06:09:26;;;;;;;25.67;6.25;;;;;;;12.56;91.50;102317.91;5076690;28;20119;-75
2022/05/08 06:11:53;;;;;;;23.83;5.28;;;;;;;12.64;91.42;102325.16;5077800;28;20048;-75
2022/05/08 06:14:20;;;;;;;32.85;6.78;;;;;;;12.65;90.33;102322.00;5077512;28;20052;-73
2022/05/08 06:16:46;;;;;;;27.98;7.35;;;;;;;12.70;90.17;102320.91;5088155;28;20202;-74
2022/05/08 06:19:13;;;;;;;22.13;5.53;;;;;;;12.76;88.39;102320.19;5077921;28;20055;-74
2022/05/08 06:21:39;;;;;;;20.75;4.85;;;;;;;12.81;88.57;102324.63;5074749;28;20064;-76
2022/05/08 06:24:06;;;;;;;29.83;5.88;;;;;;;12.87;88.22;102326.72;5080963;28;20048;-74
2022/05/08 06:26:33;;;;;;;22.58;5.18;;;;;;;12.90;87.08;102319.63;5084223;28;20094;-76
2022/05/08 06:28:59;;;;;;;19.13;4.57;;;;;;;13.01;87.34;102326.16;5082182;28;20041;-74
2022/05/08 06:31:27;;;;;;;22.20;5.28;;;;;;;13.07;87.27;102323.84;5083626;28;20048;-74
2022/05/08 06:33:54;;;;;;;26.13;4.90;;;;;;;13.07;86.12;102318.28;5072674;28;20393;-75
2022/05/08 06:36:21;;;;;;;27.88;6.72;;;;;;;13.09;86.51;102322.28;5078375;28;20044;-74
2022/05/08 06:38:48;;;;;;;23.83;5.15;;;;;;;13.14;86.52;102330.31;5080429;28;20048;-74
2022/05/08 06:41:14;;;;;;;22.15;4.93;;;;;;;13.15;85.91;102331.91;5088785;28;20047;-73
2022/05/08 06:43:41;;;;;;;16.50;3.95;;;;;;;13.03;84.83;102343.28;5073577;28;20127;-73
2022/05/08 06:46:08;;;;;;;22.88;4.35;;;;;;;12.98;84.43;102340.75;5084394;28;20159;-74
2022/05/08 06:48:35;;;;;;;16.17;4.10;;;;;;;12.98;84.70;102341.63;5083049;28;20678;-74
2022/05/08 06:51:03;;;;;;;17.98;3.90;;;;;;;13.03;84.98;102337.72;5079297;28;20056;-75
2022/05/08 06:53:31;;;;;;;18.02;5.13;;;;;;;13.05;84.57;102343.69;5074201;28;20162;-75
2022/05/08 06:55:57;;;;;;;31.65;5.10;;;;;;;13.04;84.12;102336.53;5087160;28;20055;-73
2022/05/08 06:58:26;;;;;;;15.93;3.22;;;;;;;13.05;84.04;102343.69;5069335;28;20544;-73
2022/05/08 07:03:39;;;;;;;20.40;4.50;;;;;;;12.95;83.14;102352.63;5081674;28;20052;-73
2022/05/08 07:06:06;;;;;;;22.77;4.75;;;;;;;12.94;83.43;102356.59;5073899;28;20052;-73
2022/05/08 07:08:33;;;;;;;18.90;4.53;;;;;;;12.93;82.98;102355.00;5082709;28;20121;-75
2022/05/08 07:11:00;;;;;;;19.85;4.05;;;;;;;13.00;83.06;102358.69;5079147;28;20505;-75
2022/05/08 07:13:28;;;;;;;23.35;4.35;;;;;;;13.06;83.52;102361.16;5082116;28;20542;-73
2022/05/08 07:15:55;;;;;;;25.27;5.05;;;;;;;13.11;83.17;102369.97;5072927;28;20060;-74
2022/05/08 07:18:25;;;;;;;21.50;4.50;;;;;;;13.16;82.52;102371.63;5078167;28;20605;-72
2022/05/08 07:20:52;;;;;;;21.75;4.15;;;;;;;13.20;82.38;102369.69;5073122;28;20140;-73
2022/05/08 07:23:19;;;;;;;26.70;5.88;;;;;;;13.33;82.84;102373.88;5083933;28;20138;-75
2022/05/08 07:25:45;;;;;;;21.50;6.57;;;;;;;13.43;82.35;102378.78;5068724;28;20094;-73
2022/05/08 07:28:12;;;;;;;21.90;6.63;;;;;;;13.52;81.93;102382.88;5072886;28;20080;-73
2022/05/08 07:30:38;;;;;;;20.60;4.43;;;;;;;13.58;81.29;102386.94;5074130;28;20109;-72
2022/05/08 07:33:05;;;;;;;19.25;4.78;;;;;;;13.62;80.73;102382.22;5072969;28;20075;-73
2022/05/08 07:38:23;;;;;;;18.00;3.92;;;;;;;13.66;77.68;102379.44;5064321;28;20052;-73
2022/05/08 07:40:51;;;;;;;14.10;3.30;;;;;;;13.72;78.32;102389.88;5068669;28;20102;-72
2022/05/08 07:43:17;;;;;;;19.10;4.40;;;;;;;13.77;77.63;102388.75;5063019;28;20191;-72
2022/05/08 07:45:44;;;;;;;19.10;4.97;;;;;;;13.79;77.93;102387.19;5065296;28;20136;-72
2022/05/08 07:48:11;;;;;;;18.17;4.22;;;;;;;13.80;77.18;102391.56;5066657;28;20052;-72
2022/05/08 07:50:37;;;;;;;21.15;3.85;;;;;;;13.85;77.29;102396.00;5075604;28;20044;-72
2022/05/08 07:53:04;;;;;;;11.35;2.90;;;;;;;13.85;76.59;102394.03;5069396;28;20132;-74
2022/05/08 07:55:32;;;;;;;13.75;3.92;;;;;;;13.94;76.77;102399.28;5082413;28;20131;-73
2022/05/08 07:57:59;;;;;;;15.52;3.67;;;;;;;13.99;76.31;102405.31;5073092;28;20097;-73
2022/05/08 08:00:25;;;;;;;18.52;4.25;;;;;;;14.02;75.89;102396.22;5073976;28;20102;-73
2022/05/08 08:02:52;;;;;;;20.73;4.40;;;;;;;14.14;76.70;102403.50;5073578;28;20048;-72
2022/05/08 08:05:20;;;;;;;19.50;3.75;;;;;;;14.23;76.21;102402.03;5075934;28;20083;-73
2022/05/08 08:07:47;;;;;;;15.25;3.75;;;;;;;14.22;74.78;102394.88;5068359;28;20679;-74
2022/05/08 08:10:14;;;;;;;15.07;3.97;;;;;;;14.31;74.49;102408.50;5068527;28;20656;-74
2022/05/08 08:12:40;;;;;;;23.85;4.53;;;;;;;14.43;75.17;102400.66;5067396;28;20048;-74
2022/05/08 08:15:08;;;;;;;18.85;4.18;;;;;;;14.60;74.75;102391.66;5081133;28;20526;-72
2022/05/08 08:17:34;;;;;;;24.15;5.18;;;;;;;14.79;75.56;102402.56;5072888;28;20421;-73
2022/05/08 08:20:03;;;;;;;19.98;4.35;;;;;;;14.85;74.13;102401.03;5077968;28;20048;-73
2022/05/08 08:22:30;;;;;;;22.70;4.32;;;;;;;14.95;73.95;102400.31;5079979;28;20454;-74
2022/05/08 08:24:59;;;;;;;7.55;2.65;;;;;;;15.02;71.90;102408.72;5083618;28;20079;-76
2022/05/08 08:27:27;;;;;;;17.38;3.60;;;;;;;14.97;72.24;102413.84;5078238;28;20132;-73
2022/05/08 08:29:54;;;;;;;20.40;5.00;;;;;;;14.99;72.49;102405.91;5070992;28;20039;-73
2022/05/08 08:32:24;;;;;;;22.73;4.57;;;;;;;15.02;71.91;102405.94;5074215;28;20105;-73
2022/05/08 08:34:53;;;;;;;22.48;4.80;;;;;;;15.05;72.63;102401.56;5067684;28;20044;-73
2022/05/08 08:37:19;;;;;;;23.38;4.60;;;;;;;15.21;73.56;102405.69;5067283;28;20574;-73
2022/05/08 08:39:46;;;;;;;19.52;4.20;;;;;;;15.28;72.03;102414.09;5065591;28;20132;-74
2022/05/08 08:42:25;;;;;;;17.23;3.88;;;;;;;15.37;71.82;102413.78;5071493;28;20049;-74
2022/05/08 08:47:49;;;;;;;18.95;4.75;;;;;;;15.53;70.33;102409.47;5079530;28;20079;-73
2022/05/08 08:50:17;;;;;;;20.00;5.03;;;;;;;15.65;70.72;102419.50;5080051;28;20056;-72
2022/05/08 08:52:45;;;;;;;22.20;5.10;;;;;;;15.74;70.18;102419.97;5078801;28;20048;-73
2022/05/08 08:55:11;;;;;;;17.75;4.45;;;;;;;15.83;70.29;102409.22;5081954;28;20661;-73
2022/05/08 08:57:38;;;;;;;22.40;4.30;;;;;;;15.84;68.52;102412.81;5075896;28;20467;-72
2022/05/08 09:00:06;;;;;;;21.17;5.15;;;;;;;15.89;68.64;102410.44;5072191;28;20096;-74
2022/05/08 09:02:34;;;;;;;18.70;4.60;;;;;;;16.01;68.37;102412.88;5066687;28;20483;-71
2022/05/08 09:05:07;;;;;;;25.55;4.30;;;;;;;16.12;67.63;102418.50;5066711;28;20044;-73
2022/05/08 09:07:33;;;;;;;19.48;5.75;;;;;;;16.01;66.43;102412.09;5073571;28;20492;-74
2022/05/08 09:10:09;;;;;;;18.88;4.70;;;;;;;16.08;66.47;102418.50;5079344;28;20105;-73
2022/05/08 09:12:35;;;;;;;;;;;;;;;16.13;66.02;102414.53;5078898;28;20109;-74
2022/05/08 09:15:23;;;;;;;19.88;4.53;;;;;;;16.26;66.59;102412.97;5077175;28;19981;-73
2022/05/08 09:17:55;;;;;;;21.20;4.82;;;;;;;16.32;66.02;102416.94;5071308;28;20044;-72
2022/05/08 09:20:29;;;;;;;15.10;4.93;;;;;;;16.28;64.20;102407.78;5070259;28;20439;-72
2022/05/08 09:23:09;;;;;;;21.13;4.90;;;;;;;16.41;65.27;102415.41;5069855;28;20058;-73
2022/05/08 09:25:44;;;;;;;18.63;4.40;;;;;;;16.49;65.62;102413.44;5068578;28;20507;-73
2022/05/08 09:28:30;;;;;;;19.80;4.47;;;;;;;16.63;65.99;102417.03;5069248;28;20052;-72
2022/05/08 09:31:06;;;;;;;24.85;5.72;;;;;;;16.72;64.78;102411.88;5067746;28;20135;-72
2022/05/08 09:33:38;;;;;;;14.07;4.38;;;;;;;16.85;65.80;102406.66;5066315;28;20049;-73
2022/05/08 09:36:25;;;;;;;18.08;4.40;;;;;;;16.90;63.93;102418.25;5070398;28;20109;-75
2022/05/08 09:38:55;;;;;;;16.70;4.05;;;;;;;17.05;63.91;102411.44;5071548;28;20377;-74
2022/05/08 09:41:22;;;;;;;18.67;4.28;;;;;;;17.13;61.62;102410.25;5068114;28;20147;-72
2022/05/08 09:43:50;;;;;;;20.58;4.60;;;;;;;17.20;61.06;102410.25;5067096;28;20052;-74
2022/05/08 09:46:20;;;;;;;21.40;5.15;;;;;;;17.27;61.79;102413.03;5073014;28;20135;-72
2022/05/08 09:48:48;;;;;;;15.05;4.43;;;;;;;17.43;61.59;102415.41;5072186;28;20059;-75
2022/05/08 09:51:15;;;;;;;17.77;5.53;;;;;;;17.51;60.89;102411.38;5080704;28;20135;-72
2022/05/08 09:53:44;;;;;;;19.75;4.55;;;;;;;17.70;60.20;102405.34;5075470;28;20117;-70
2022/05/08 09:56:12;;;;;;;18.95;4.43;;;;;;;17.82;60.17;102402.09;5067440;28;20131;-73
2022/05/08 09:58:40;;;;;;;18.42;4.95;;;;;;;17.90;59.67;102396.06;5071216;28;20074;-73
2022/05/08 10:01:07;;;;;;;16.15;4.25;;;;;;;17.81;56.52;102409.69;5069042;28;20056;-75
2022/05/08 10:03:34;;;;;;;21.67;4.85;;;;;;;17.77;57.19;102403.31;5075631;28;20052;-72
2022/05/08 10:06:02;;;;;;;16.48;4.32;;;;;;;17.71;56.99;102406.94;5073262;28;20051;-73
2022/05/08 10:08:33;;;;;;;17.15;4.30;;;;;;;17.78;57.50;102407.69;5081908;28;20076;-73
2022/05/08 10:14:01;;;;;;;15.13;3.72;;;;;;;17.95;57.41;102408.81;5076710;28;20055;-72
2022/05/08 10:17:02;;;;;;;19.20;4.40;;;;;;;18.02;55.87;102396.81;5081767;28;20052;-74
2022/05/08 10:19:29;;;;;;;22.35;5.00;;;;;;;18.11;57.07;102397.13;5075176;28;20431;-73
2022/05/08 10:24:38;;;;;;;21.58;5.28;;;;;;;18.35;55.20;102402.59;5074517;28;20052;-74
2022/05/08 10:27:23;;;;;;;18.98;5.57;;;;;;;18.33;54.43;102388.22;5080804;28;20048;-75
2022/05/08 10:29:50;;;;;;;17.92;4.32;;;;;;;18.48;55.30;102392.53;5084254;28;20826;-71
2022/05/08 10:32:31;;;;;;;17.60;4.20;;;;;;;18.72;54.93;102385.13;5081622;28;20134;-71
2022/05/08 10:35:16;;;;;;;17.92;5.35;;;;;;;18.99;54.40;102380.47;5081978;28;20128;-71
2022/05/08 10:38:19;;;;;;;25.83;4.85;;;;;;;19.17;53.74;102383.94;5085554;28;20496;-71
2022/05/08 10:40:46;;;;;;;20.10;4.90;;;;;;;19.29;53.96;102370.19;5079009;28;20132;-71
2022/05/08 10:43:12;;;;;;;19.58;5.10;;;;;;;19.32;52.04;102374.16;5082852;28;20495;-72
2022/05/08 10:45:41;;;;;;;19.67;4.80;;;;;;;19.36;52.30;102372.91;5071530;28;20111;-71
2022/05/08 10:48:11;;;;;;;21.55;4.72;;;;;;;19.46;51.36;102377.63;5072552;28;20102;-71
2022/05/08 10:50:39;;;;;;;20.08;4.88;;;;;;;19.52;50.97;102377.94;5081379;28;20136;-74
2022/05/08 10:53:06;;;;;;;17.90;3.70;;;;;;;19.34;50.18;102369.72;5071325;28;20058;-71
2022/05/08 10:55:33;;;;;;;17.85;4.97;;;;;;;19.34;50.68;102366.13;5086358;28;20082;-72
2022/05/08 10:58:00;;;;;;;21.48;5.55;;;;;;;19.35;51.57;102367.72;5075417;28;20054;-71
2022/05/08 11:00:30;;;;;;;15.70;3.90;;;;;;;19.58;50.46;102368.63;5068055;28;20079;-72
2022/05/08 11:02:59;;;;;;;17.67;4.15;;;;;;;19.75;49.61;102373.22;5073392;28;20080;-71
2022/05/08 11:05:36;;;;;;;19.35;4.93;;;;;;;19.88;49.87;102367.88;5068792;28;20052;-71
2022/05/08 11:08:04;;;;;;;18.40;4.38;;;;;;;20.01;49.85;102366.88;5088197;28;20054;-71
2022/05/08 11:10:32;;;;;;;17.08;4.25;;;;;;;20.20;48.85;102366.25;5078533;28;20054;-74
2022/05/08 11:13:09;;;;;;;14.40;3.95;;;;;;;20.33;48.62;102360.81;5081471;28;20097;-73
2022/05/08 11:15:48;;;;;;;18.55;5.07;;;;;;;20.54;48.42;102366.09;5075735;28;20063;-74
2022/05/08 11:18:24;;;;;;;11.55;3.70;;;;;;;20.60;48.03;102372.84;5077155;28;20056;-74
2022/05/08 11:21:02;;;;;;;22.00;5.63;;;;;;;20.57;46.83;102356.00;5080329;28;20084;-72
2022/05/08 11:23:30;;;;;;;16.55;3.88;;;;;;;20.49;47.04;102351.75;5082492;28;20414;-72
2022/05/08 11:25:59;;;;;;;16.55;4.30;;;;;;;20.56;46.34;102357.25;5087175;28;20757;-73
2022/05/08 11:28:28;;;;;;;16.25;4.82;;;;;;;20.78;46.52;102345.22;5078283;28;20147;-74
2022/05/08 11:30:56;;;;;;;22.65;4.82;;;;;;;20.97;46.63;102343.69;5075383;28;20051;-71
2022/05/08 11:36:25;;;;;;;18.10;4.35;;;;;;;21.25;44.08;102334.72;5074076;28;20052;-71
2022/05/08 11:38:59;;;;;;;16.50;4.35;;;;;;;21.38;45.16;102335.66;5083589;28;20052;-71
2022/05/08 11:41:31;;;;;;;20.25;5.30;;;;;;;21.65;44.91;102339.13;5072088;28;20136;-72
2022/05/08 11:44:02;;;;;;;18.45;4.95;;;;;;;21.68;45.22;102332.63;5071935;28;20087;-70
2022/05/08 11:46:37;;;;;;;16.33;4.30;;;;;;;22.11;43.53;102334.06;5077546;28;20163;-71
2022/05/08 11:49:12;;;;;;;;;;;;;;;22.45;44.04;102326.00;5080302;28;20043;-69
2022/05/08 11:51:42;;;;;;;15.98;4.85;;;;;;;22.48;43.42;102321.50;5079314;28;19921;-73